Aérodrome :
LOGIN :

S'inscrire | Disclaimer

   EN    FR    IT 

 










Légende :    VFR   VFR Marginal   IFR   IFR Intensif   IFR Très Intensif
Visi : 
Plafond : 
>= 8 km
>= 3000ft
5 à 8 km
1000 à 3000 ft
1500m à 5 km
500 à 1000 ft
800 à 1500m
200 à 500 ft
< 800m
< 200 ft
Symboles :   Orages  Brouillard  Fortes neiges  Fortes précipitations  Vent > 20 kt
SIGMETs :   Divers  Orages  Givrage  Turbulence  Onde Orograph.  Cendres Volcan.






- Altitude de l'aérodrome : 219 ft
- Code IATA : DNR


LFRD - Dinard

DERNIER METAR :
  • 012300Z AUTO 00000KT CAVOK 12/10 Q1022 TEMPO 3000 BR

METARs EXPIRÉS :
  • 012200Z AUTO 33002KT CAVOK 12/11 Q1022 NOSIG
  • 011630Z AUTO 02007KT 350V050 9999 FEW048 SCT058 OVC070 17/11 Q1020 NOSIG
  • 012130Z AUTO 32001KT CAVOK 13/11 Q1022 NOSIG
  • 012100Z AUTO 34003KT CAVOK 13/11 Q1021 NOSIG
  • 012030Z AUTO 33005KT CAVOK 15/12 Q1021 NOSIG
  • 012000Z AUTO 35005KT CAVOK 16/12 Q1021 NOSIG

TAF TAF LFRD
Valide du 01 à 18h jusqu'au 02 à 18h UTC


011700Z 0118/0218 01010KT 9999 SCT040
BECMG 0118/0120 VRB03KT
TEMPO 0200/0206 3000 BR
PROB40
TEMPO 0202/0206 0500 FG
BECMG 0210/0212 02010KT
ATIS : +33 2 99 16 81 50



MET'MAP, la Météo Aéronautique d'un coup d'oeil ! - Copyright ORBIFLY Décembre 2007 - Disclaimer

ORBIFLY MET'MAP TEAM :

Programmation & Développement : Alexandra Zaïnal
Sur une idée originale de : Baudouin d'Aumeries
Soutien technique & logistique : Manuel Goepfert
Assistance : Marc-Olivier Méhu




SOURCES & CREDITS :

   NOAA